.
WxDataArchive / Data Records for 2010-06-27
2010-06-26 June 2010 2010-06-28

Data Records for Sunday, 27 June 2010

Time	Temp	Chill	HIndex	Humid	Dewpt	 Wind 	HiWind	WindDir	Rain 	Barom 
-----	----	-----	------	-----	-----	------	------	-------	-----	----- 
00:00	74.9	74.9	74.9	83	69.4	0	0	---	0.00	29.782 
00:05	74.6	74.6	74.6	83	69.1	0	0	---	0.00	29.782 
00:10	74.4	74.4	74.4	84	69.2	0	0	---	0.00	29.782 
00:15	74.2	74.2	74.2	84	69.0	0	0	---	0.00	29.783 
00:20	74.0	74.0	74.0	84	68.8	0	0	---	0.00	29.783 
00:25	73.9	73.9	73.9	85	69.1	0	0	---	0.00	29.783 
00:30	73.9	73.9	73.9	85	69.1	0	0	---	0.00	29.791 
00:35	73.7	73.7	73.7	86	69.2	0	0	---	0.00	29.791 
00:40	73.5	73.5	73.5	86	69.0	0	0	---	0.00	29.791 
00:45	73.3	73.3	73.3	87	69.2	0	0	---	0.00	29.795 
00:50	73.2	73.2	73.2	87	69.1	0	0	---	0.00	29.795 
00:55	73.2	73.2	73.2	86	68.7	0	0	---	0.00	29.795 
01:00	73.0	73.0	73.0	87	68.9	0	0	---	0.00	29.792 
01:05	73.0	73.0	73.0	87	68.9	0	0	---	0.00	29.792 
01:10	72.8	72.8	72.8	87	68.7	0	0	---	0.00	29.792 
01:15	72.7	72.7	72.7	87	68.6	0	0	---	0.00	29.789 
01:20	72.5	72.5	72.5	87	68.4	0	0	---	0.00	29.789 
01:25	72.5	72.5	72.5	88	68.7	0	0	---	0.00	29.789 
01:30	72.3	72.3	72.3	88	68.5	0	0	---	0.00	29.794 
01:35	72.1	72.1	72.1	88	68.3	0	0	---	0.00	29.794 
01:40	72.0	72.0	72.0	88	68.2	0	0	---	0.00	29.794 
01:45	71.8	71.8	71.8	89	68.4	0	0	---	0.00	29.797 
01:50	71.8	71.8	71.8	89	68.4	0	0	---	0.00	29.797 
01:55	71.6	71.6	71.6	89	68.2	0	0	---	0.00	29.797 
02:00	71.6	71.6	71.6	89	68.2	0	0	---	0.00	29.797 
02:05	71.5	71.5	71.5	90	68.4	0	0	---	0.00	29.797 
02:10	71.3	71.3	71.3	90	68.2	0	0	---	0.00	29.797 
02:15	71.3	71.3	71.3	90	68.2	0	0	---	0.00	29.798 
02:20	71.3	71.3	71.3	90	68.2	0	0	---	0.00	29.798 
02:25	71.3	71.3	71.3	90	68.2	0	0	---	0.00	29.798 
02:30	71.3	71.3	71.3	90	68.2	0	0	---	0.00	29.798 
02:35	71.3	71.3	71.3	91	68.5	0	0	---	0.00	29.798 
02:40	71.3	71.3	71.3	91	68.5	0	0	---	0.00	29.798 
02:45	71.3	71.3	71.3	91	68.5	0	0	---	0.00	29.795 
02:50	71.1	71.1	71.1	91	68.3	0	0	---	0.00	29.795 
02:55	71.1	71.1	71.1	91	68.3	0	0	---	0.00	29.795 
03:00	71.1	71.1	71.1	91	68.3	0	0	---	0.00	29.795 
03:05	71.1	71.1	71.1	91	68.3	0	0	---	0.00	29.795 
03:10	70.9	70.9	70.9	91	68.1	0	0	---	0.00	29.795 
03:15	70.9	70.9	70.9	91	68.1	0	0	---	0.00	29.790 
03:20	70.8	70.8	70.8	91	68.0	0	0	---	0.00	29.790 
03:25	70.8	70.8	70.8	91	68.0	0	0	---	0.00	29.790 
03:30	70.6	70.6	70.6	91	67.8	0	0	---	0.00	29.780 
03:35	70.6	70.6	70.6	91	67.8	0	0	---	0.00	29.780 
03:40	70.6	70.6	70.6	91	67.8	0	0	---	0.00	29.780 
03:45	70.4	70.4	70.4	92	68.0	0	0	---	0.00	29.767 
03:50	70.4	70.4	70.4	92	68.0	0	0	---	0.00	29.767 
03:55	70.3	70.3	70.3	92	67.9	0	0	---	0.00	29.767 
04:00	70.3	70.3	70.3	92	67.9	0	0	---	0.00	29.762 
04:05	70.1	70.1	70.1	92	67.7	0	0	---	0.00	29.762 
04:10	70.1	70.1	70.1	92	67.7	0	0	---	0.00	29.762 
04:15	69.9	69.9	69.9	92	67.5	0	0	---	0.00	29.750 
04:20	69.9	69.9	69.9	92	67.5	0	0	---	0.00	29.750 
04:25	69.9	69.9	69.9	92	67.5	0	0	---	0.00	29.750 
04:30	69.8	69.8	69.8	92	67.4	0	0	---	0.00	29.742 
04:35	69.6	69.6	69.6	93	67.5	0	0	---	0.00	29.742 
04:40	69.6	69.6	69.6	93	67.5	0	0	---	0.00	29.742 
04:45	69.6	69.6	69.6	93	67.5	0	0	---	0.00	29.736 
04:50	69.4	69.4	69.4	93	67.3	0	0	---	0.00	29.736 
04:55	69.4	69.4	69.4	93	67.3	0	0	---	0.00	29.736 
05:00	69.4	69.4	69.4	93	67.3	0	0	---	0.00	29.738 
05:05	69.4	69.4	69.4	93	67.3	0	0	---	0.00	29.738 
05:10	69.4	69.4	69.4	94	67.6	0	0	---	0.00	29.738 
05:15	69.6	69.6	69.6	94	67.8	0	0	---	0.00	29.737 
05:20	69.6	69.6	69.6	94	67.8	0	0	---	0.00	29.737 
05:25	69.6	69.6	69.6	94	67.8	0	0	---	0.00	29.737 
05:30	69.8	69.8	69.8	94	68.0	0	0	---	0.00	29.733 
05:35	69.6	69.6	69.6	94	67.8	0	0	---	0.00	29.733 
05:40	69.6	69.6	69.6	94	67.8	0	0	---	0.00	29.733 
05:45	69.6	69.6	69.6	94	67.8	0	0	---	0.00	29.736 
05:50	69.4	69.4	69.4	94	67.6	0	0	---	0.00	29.736 
05:55	69.3	69.3	69.3	94	67.5	0	0	---	0.00	29.736 
06:00	69.3	69.3	69.3	94	67.5	0	0	---	0.00	29.733 
06:05	69.1	69.1	69.1	94	67.3	0	0	---	0.00	29.733 
06:10	69.1	69.1	69.1	94	67.3	0	0	---	0.00	29.733 
06:15	69.1	69.1	69.1	94	67.3	0	0	---	0.00	29.736 
06:20	69.1	69.1	69.1	94	67.3	0	0	---	0.00	29.736 
06:25	69.1	69.1	69.1	95	67.6	0	0	---	0.00	29.736 
06:30	69.1	69.1	69.1	95	67.6	0	0	---	0.00	29.738 
06:35	69.3	69.3	69.3	95	67.8	0	0	---	0.00	29.738 
06:40	69.3	69.3	69.3	95	67.8	0	0	---	0.00	29.738 
06:45	69.6	69.6	69.6	95	68.1	0	0	---	0.00	29.735 
06:50	69.6	69.6	69.6	95	68.1	0	0	---	0.00	29.735 
06:55	69.8	69.8	69.8	95	68.3	0	0	---	0.00	29.735 
07:00	69.9	69.9	69.9	95	68.4	0	0	---	0.00	29.734 
07:05	70.1	70.1	70.1	95	68.6	0	0	---	0.00	29.734 
07:10	70.3	70.3	70.3	95	68.8	0	0	---	0.00	29.734 
07:15	70.4	70.4	70.4	95	68.9	0	0	---	0.00	29.736 
07:20	70.8	70.8	70.8	95	69.3	0	0	---	0.00	29.736 
07:25	71.1	71.1	71.1	95	69.6	0	0	---	0.00	29.736 
07:30	71.5	71.5	71.5	95	70.0	0	0	---	0.00	29.727 
07:35	72.0	72.0	72.0	95	70.5	0	1	315	0.00	29.727 
07:40	72.3	72.3	72.3	94	70.5	0	1	315	0.00	29.727 
07:45	72.7	72.7	72.7	92	70.2	0	1	315	0.00	29.723 
07:50	73.0	73.0	73.0	92	70.5	0	1	315	0.00	29.723 
07:55	73.7	73.7	73.7	91	70.9	0	1	315	0.00	29.723 
08:00	74.2	74.2	74.2	89	70.7	0	1	225	0.00	29.730 
08:05	74.7	74.7	74.7	88	70.9	0	1	202	0.00	29.730 
08:10	75.1	75.1	74.7	87	71.0	0	1	202	0.00	29.730 
08:15	75.4	75.4	75.4	86	70.9	0	1	202	0.00	29.735 
08:20	76.1	76.1	76.7	85	71.2	0	2	270	0.00	29.735 
08:25	76.7	76.7	77.9	84	71.5	0	2	270	0.00	29.735 
08:30	76.8	76.8	78.1	83	71.2	0	1	270	0.00	29.730 
08:35	77.2	77.2	78.8	83	71.6	0	1	270	0.00	29.730 
08:40	77.4	77.4	79.2	83	71.8	0	1	270	0.00	29.730 
08:45	77.9	77.9	80.2	82	71.9	0	2	338	0.00	29.726 
08:50	78.5	78.5	81.3	81	72.2	1	3	292	0.00	29.726 
08:55	79.2	79.2	82.7	81	72.8	0	2	270	0.00	29.726 
09:00	79.9	79.9	83.9	79	72.8	0	1	180	0.00	29.716 
09:05	80.5	80.5	84.8	77	72.6	1	5	248	0.00	29.716 
09:10	80.7	80.7	85.2	77	72.8	1	3	248	0.00	29.716 
09:15	80.9	80.9	85.5	76	72.6	1	4	270	0.00	29.716 
09:20	81.1	81.1	85.9	76	72.8	1	3	45	0.00	29.716 
09:25	81.2	81.2	86.3	77	73.3	1	4	292	0.00	29.716 
09:30	81.4	81.4	86.5	76	73.1	2	4	270	0.00	29.717 
09:35	81.8	81.8	87.4	76	73.5	1	4	270	0.00	29.717 
09:40	82.0	82.0	87.6	75	73.3	1	3	270	0.00	29.717 
09:45	82.4	82.4	88.4	75	73.7	1	2	270	0.00	29.706 
09:50	82.8	82.8	89.3	75	74.0	1	2	270	0.00	29.706 
09:55	83.0	83.0	89.2	73	73.4	2	4	270	0.00	29.706 
10:00	83.0	83.0	89.2	73	73.4	2	4	248	0.00	29.698 
10:05	83.2	83.2	90.0	74	74.0	1	4	248	0.00	29.698 
10:10	83.4	83.4	90.4	74	74.2	1	4	248	0.00	29.698 
10:15	83.6	83.6	90.5	73	74.0	2	5	270	0.00	29.691 
10:20	83.6	83.6	90.5	73	74.0	1	4	270	0.00	29.691 
10:25	83.8	83.8	91.0	73	74.2	1	3	270	0.00	29.691 
10:30	84.0	84.0	91.8	74	74.8	1	5	248	0.00	29.688 
10:35	84.3	84.3	92.2	73	74.7	1	3	292	0.00	29.688 
10:40	84.5	84.5	92.6	73	74.9	1	4	270	0.00	29.688 
10:45	84.7	84.7	92.8	72	74.6	2	5	292	0.00	29.684 
10:50	84.7	84.7	92.8	72	74.6	1	5	225	0.00	29.684 
10:55	84.9	84.9	92.8	71	74.4	2	3	270	0.00	29.684 
11:00	85.1	85.1	92.9	70	74.2	2	6	248	0.00	29.685 
11:05	85.3	85.3	93.0	69	73.9	2	5	270	0.00	29.685 
11:10	85.5	85.5	93.9	70	74.6	1	6	270	0.00	29.685 
11:15	85.5	85.5	93.1	68	73.7	2	5	248	0.00	29.686 
11:20	85.5	85.5	93.1	68	73.7	2	4	270	0.00	29.686 
11:25	85.7	85.7	93.5	68	73.9	2	7	270	0.00	29.686 
11:30	85.7	85.7	92.7	66	73.0	2	4	270	0.00	29.685 
11:35	85.7	85.7	93.1	67	73.4	1	5	248	0.00	29.685 
11:40	85.9	85.9	93.2	66	73.2	2	6	270	0.00	29.685 
11:45	86.1	86.1	93.6	66	73.4	2	4	315	0.00	29.679 
11:50	86.5	86.5	94.5	66	73.8	2	4	315	0.00	29.679 
11:55	87.0	87.0	95.2	65	73.8	2	4	270	0.00	29.679 
12:00	87.0	87.0	95.2	65	73.8	1	5	0	0.00	29.661 
12:05	87.6	87.6	95.7	63	73.4	1	5	225	0.00	29.661 
12:10	87.8	87.8	95.2	61	72.6	3	9	248	0.00	29.661 
12:15	88.0	88.0	95.1	60	72.3	2	4	270	0.00	29.650 
12:20	88.2	88.2	96.1	61	73.0	1	4	270	0.00	29.650 
12:25	88.4	88.4	97.5	63	74.2	1	5	270	0.00	29.650 
12:30	88.8	88.8	96.4	59	72.6	2	5	270	0.00	29.654 
12:35	88.6	88.6	96.5	60	72.9	2	6	315	0.00	29.654 
12:40	88.6	88.6	96.5	60	72.9	2	5	270	0.00	29.654 
12:45	88.4	88.4	96.0	60	72.7	2	6	292	0.00	29.668 
12:50	88.4	88.4	95.5	59	72.2	2	7	270	0.00	29.668 
12:55	88.2	88.2	94.2	57	71.0	2	5	270	0.00	29.668 
13:00	88.0	88.0	94.3	58	71.3	2	6	270	0.00	29.655 
13:05	87.8	87.8	94.3	59	71.7	3	9	270	0.00	29.655 
13:10	87.8	87.8	94.7	60	72.1	2	5	270	0.00	29.655 
13:15	87.6	87.6	94.3	60	72.0	2	8	270	0.00	29.652 
13:20	87.4	87.4	93.9	60	71.8	3	6	270	0.00	29.652 
13:25	87.0	87.0	93.1	60	71.4	2	6	270	0.00	29.652 
13:30	86.7	86.7	93.3	62	72.1	2	6	270	0.00	29.641 
13:35	86.5	86.5	92.5	61	71.4	2	6	248	0.00	29.641 
13:40	86.5	86.5	92.8	62	71.9	2	6	270	0.00	29.641 
13:45	86.5	86.5	92.8	62	71.9	2	5	270	0.00	29.635 
13:50	86.5	86.5	93.3	63	72.4	1	3	270	0.00	29.635 
13:55	85.9	85.9	94.0	68	74.1	1	3	225	0.01	29.635 
14:00	84.7	84.7	91.3	68	72.9	2	9	248	0.00	29.609 
14:05	84.7	84.7	91.3	68	72.9	3	6	248	0.00	29.609 
14:10	85.1	85.1	92.6	69	73.8	2	7	292	0.00	29.609 
14:15	85.1	85.1	92.6	69	73.8	2	7	270	0.00	29.613 
14:20	84.9	84.9	92.1	69	73.6	1	4	248	0.00	29.613 
14:25	84.7	84.7	92.0	70	73.8	1	4	90	0.00	29.613 
14:30	84.1	84.1	91.0	71	73.7	3	12	270	0.01	29.624 
14:35	82.0	82.0	88.5	79	74.8	2	5	270	0.02	29.624 
14:40	80.5	80.5	85.8	83	74.8	1	3	248	0.02	29.624 
14:45	79.2	79.2	83.0	85	74.3	1	4	248	0.02	29.614 
14:50	78.6	78.6	81.8	87	74.4	1	3	248	0.01	29.614 
14:55	78.5	78.5	81.6	88	74.6	1	3	248	0.02	29.614 
15:00	78.6	78.6	82.0	90	75.4	0	4	248	0.01	29.609 
15:05	78.8	78.8	82.5	90	75.6	1	3	292	0.01	29.609 
15:10	78.6	78.6	82.0	90	75.4	1	5	292	0.00	29.609 
15:15	79.0	79.0	82.8	88	75.1	2	5	248	0.01	29.610 
15:20	80.1	80.1	85.8	89	76.6	0	2	248	0.00	29.610 
15:25	80.7	80.7	87.2	88	76.8	0	2	248	0.00	29.610 
15:30	81.4	81.4	88.5	85	76.4	1	4	338	0.00	29.595 
15:35	82.2	82.2	90.4	84	76.9	1	4	315	0.00	29.595 
15:40	83.2	83.2	92.2	81	76.7	1	5	292	0.00	29.595 
15:45	84.0	84.0	94.0	80	77.1	2	5	270	0.01	29.586 
15:50	84.3	84.3	92.9	75	75.5	2	8	270	0.00	29.586 
15:55	84.7	84.7	93.9	75	75.9	2	6	270	0.00	29.586 
16:00	84.7	84.7	93.9	75	75.9	1	3	270	0.00	29.577 
16:05	85.1	85.1	94.5	74	75.9	2	7	248	0.00	29.577 
16:10	85.7	85.7	95.2	72	75.6	3	11	248	0.00	29.577 
16:15	85.7	85.7	94.8	71	75.2	2	6	292	0.00	29.570 
16:20	85.9	85.9	94.8	70	74.9	3	7	270	0.00	29.570 
16:25	86.1	86.1	94.9	69	74.7	2	5	248	0.00	29.570 
16:30	86.3	86.3	95.8	70	75.3	3	6	248	0.00	29.562 
16:35	86.3	86.3	94.9	68	74.5	3	7	248	0.00	29.562 
16:40	86.3	86.3	94.9	68	74.5	3	6	248	0.00	29.562 
16:45	86.1	86.1	94.4	68	74.3	3	6	270	0.00	29.546 
16:50	85.5	85.5	92.7	67	73.3	3	9	248	0.00	29.546 
16:55	85.1	85.1	92.2	68	73.3	4	10	248	0.00	29.546 
17:00	84.9	84.9	92.5	70	74.0	2	7	270	0.00	29.555 
17:05	84.5	84.5	91.2	69	73.2	3	10	270	0.00	29.555 
17:10	84.1	84.1	90.7	70	73.2	2	6	270	0.00	29.555 
17:15	83.8	83.8	90.4	71	73.4	1	4	248	0.00	29.564 
17:20	83.8	83.8	90.0	70	72.9	3	9	270	0.00	29.564 
17:25	83.6	83.6	89.9	71	73.2	2	5	270	0.00	29.564 
17:30	83.0	83.0	88.9	72	73.0	6	13	270	0.00	29.606 
17:35	76.8	76.8	78.2	81	70.5	5	11	315	0.00	29.606 
17:40	74.6	74.6	74.6	87	70.5	4	11	315	0.01	29.606 
17:45	74.0	74.0	74.0	90	70.9	4	8	315	0.01	29.603 
17:50	73.5	73.5	73.5	91	70.7	3	9	270	0.01	29.603 
17:55	73.3	73.3	73.3	92	70.8	2	6	270	0.01	29.603 
18:00	73.5	73.5	73.5	93	71.3	3	5	270	0.01	29.579 
18:05	73.7	73.7	73.7	93	71.5	1	5	270	0.01	29.579 
18:10	73.9	73.9	73.9	93	71.7	0	2	248	0.04	29.579 
18:15	74.0	74.0	74.0	93	71.8	0	1	248	0.00	29.587 
18:20	74.2	74.2	74.2	94	72.4	0	1	248	0.00	29.587 
18:25	74.2	74.2	74.2	94	72.4	1	3	248	0.00	29.587 
18:30	74.2	74.2	74.2	94	72.4	0	1	248	0.00	29.580 
18:35	74.2	74.2	74.2	94	72.4	0	1	248	0.00	29.580 
18:40	74.4	74.4	74.4	94	72.6	0	1	248	0.00	29.580 
18:45	74.4	74.4	74.4	94	72.6	0	1	248	0.00	29.566 
18:50	74.4	74.4	74.4	94	72.6	0	1	248	0.00	29.566 
18:55	74.6	74.6	74.6	94	72.8	0	1	248	0.00	29.566 
19:00	74.6	74.6	74.6	94	72.8	0	0	---	0.00	29.555 
19:05	74.6	74.6	74.6	95	73.1	0	0	---	0.00	29.555 
19:10	74.7	74.7	74.7	95	73.2	0	0	---	0.00	29.555 
19:15	74.7	74.7	74.7	95	73.2	0	0	---	0.00	29.538 
19:20	75.1	75.1	73.4	95	73.6	0	1	248	0.00	29.538 
19:25	75.4	75.4	74.1	95	73.9	0	2	248	0.00	29.538 
19:30	75.8	75.8	75.0	95	74.3	1	3	248	0.00	29.543 
19:35	76.0	76.0	75.5	95	74.5	0	1	248	0.00	29.543 
19:40	76.0	76.0	75.5	95	74.5	0	1	248	0.00	29.543 
19:45	76.0	76.0	75.5	95	74.5	0	1	248	0.00	29.562 
19:50	76.0	76.0	75.5	95	74.5	0	2	248	0.00	29.562 
19:55	76.1	76.1	75.7	95	74.6	0	3	248	0.00	29.562 
20:00	76.1	76.1	75.8	94	74.2	0	1	248	0.00	29.560 
20:05	76.3	76.3	76.3	94	74.4	0	0	---	0.00	29.560 
20:10	76.5	76.5	76.8	94	74.6	0	1	248	0.00	29.560 
20:15	76.5	76.5	76.8	94	74.6	0	1	248	0.00	29.547 
20:20	76.7	76.7	77.3	93	74.5	0	0	---	0.00	29.547 
20:25	76.7	76.7	77.3	93	74.5	0	1	248	0.00	29.547 
20:30	76.7	76.7	77.3	93	74.5	0	0	---	0.00	29.553 
20:35	76.7	76.7	77.3	93	74.5	0	1	248	0.00	29.553 
20:40	76.8	76.8	77.5	93	74.6	0	0	---	0.00	29.553 
20:45	76.8	76.8	77.5	93	74.6	0	0	---	0.00	29.557 
20:50	76.8	76.8	77.5	93	74.6	0	0	---	0.00	29.557 
20:55	76.8	76.8	77.5	93	74.6	0	1	248	0.00	29.557 
21:00	76.8	76.8	77.5	93	74.6	0	1	248	0.00	29.561 
21:05	76.8	76.8	77.5	93	74.6	0	1	248	0.00	29.561 
21:10	76.7	76.7	77.4	92	74.2	0	0	---	0.00	29.561 
21:15	76.7	76.7	77.4	92	74.2	0	0	---	0.00	29.559 
21:20	76.5	76.5	76.9	92	74.0	0	0	---	0.00	29.559 
21:25	76.3	76.3	76.5	92	73.8	0	0	---	0.00	29.559 
21:30	76.3	76.3	76.5	92	73.8	0	0	---	0.00	29.575 
21:35	76.3	76.3	76.5	92	73.8	0	0	---	0.00	29.575 
21:40	76.3	76.3	76.4	93	74.1	0	0	---	0.00	29.575 
21:45	76.3	76.3	76.4	93	74.1	0	0	---	0.00	29.577 
21:50	76.3	76.3	76.4	93	74.1	0	0	---	0.00	29.577 
21:55	76.1	76.1	75.9	93	73.9	0	0	---	0.00	29.577 
22:00	76.1	76.1	75.9	93	73.9	0	0	---	0.00	29.585 
22:05	76.0	76.0	75.8	92	73.5	0	0	---	0.00	29.585 
22:10	75.8	75.8	75.4	92	73.3	0	0	---	0.00	29.585 
22:15	75.6	75.6	75.0	92	73.1	0	0	---	0.00	29.592 
22:20	75.4	75.4	74.5	92	72.9	0	0	---	0.00	29.592 
22:25	75.1	75.1	73.9	92	72.6	0	0	---	0.00	29.592 
22:30	75.1	75.1	74.1	91	72.3	0	0	---	0.00	29.607 
22:35	75.1	75.1	74.1	91	72.3	0	0	---	0.00	29.607 
22:40	74.9	74.9	74.9	90	71.8	0	0	---	0.00	29.607 
22:45	74.7	74.7	74.7	90	71.6	0	0	---	0.00	29.606 
22:50	74.7	74.7	74.7	90	71.6	0	0	---	0.00	29.606 
22:55	74.6	74.6	74.6	90	71.5	0	0	---	0.00	29.606 
23:00	74.4	74.4	74.4	90	71.3	0	0	---	0.00	29.621 
23:05	74.4	74.4	74.4	90	71.3	0	0	---	0.00	29.621 
23:10	74.2	74.2	74.2	90	71.1	0	0	---	0.00	29.621 
23:15	74.0	74.0	74.0	91	71.2	0	0	---	0.00	29.624 
23:20	74.0	74.0	74.0	91	71.2	0	0	---	0.00	29.624 
23:25	73.9	73.9	73.9	91	71.1	0	0	---	0.00	29.624 
23:30	73.7	73.7	73.7	91	70.9	0	0	---	0.00	29.619 
23:35	73.7	73.7	73.7	91	70.9	0	0	---	0.00	29.619 
23:40	73.5	73.5	73.5	92	71.0	0	0	---	0.00	29.619 
23:45	73.5	73.5	73.5	92	71.0	0	0	---	0.00	29.617 
23:50	73.3	73.3	73.3	92	70.8	0	0	---	0.00	29.617 
23:55	73.2	73.2	73.2	92	70.7	0	0	---	0.00	29.617 

CoCoRaHS
IN-AL-39
A2 Web Hosting
Creative Commons License
GoDaddy
search engine by freefind advanced

loaded 2018-11-13 17:11:40 • last modified 2010-11-18 10:43:29
Privacy PolicyDisclaimer
• wx.awcolley.com is powered by PmWiki v.2002016 •
• all content (unless otherwise noted) © 2018 A W Colley